地図

経路データ

SID SEASON NUMBER BASIN SUBBASIN NAME ISO_TIME NATURE LAT LON WMO_WIND WMO_PRES WMO_AGENCY TRACK_TYPE DIST2LAND LANDFALL IFLAG USA_AGENCY USA_ATCF_ID USA_LAT USA_LON USA_RECORD USA_STATUS USA_WIND USA_PRES USA_SSHS USA_R34_NE USA_R34_SE USA_R34_SW USA_R34_NW USA_R50_NE USA_R50_SE USA_R50_SW USA_R50_NW USA_R64_NE USA_R64_SE USA_R64_SW USA_R64_NW USA_POCI USA_ROCI USA_RMW USA_EYE TOKYO_LAT TOKYO_LON TOKYO_GRADE TOKYO_WIND TOKYO_PRES TOKYO_R50_DIR TOKYO_R50_LONG TOKYO_R50_SHORT TOKYO_R30_DIR TOKYO_R30_LONG TOKYO_R30_SHORT TOKYO_LAND CMA_LAT CMA_LON CMA_CAT CMA_WIND CMA_PRES HKO_LAT HKO_LON HKO_CAT HKO_WIND HKO_PRES NEWDELHI_LAT NEWDELHI_LON NEWDELHI_GRADE NEWDELHI_WIND NEWDELHI_PRES NEWDELHI_CI NEWDELHI_DP NEWDELHI_POCI REUNION_LAT REUNION_LON REUNION_TYPE REUNION_WIND REUNION_PRES REUNION_TNUM REUNION_CI REUNION_RMW REUNION_R34_NE REUNION_R34_SE REUNION_R34_SW REUNION_R34_NW REUNION_R50_NE REUNION_R50_SE REUNION_R50_SW REUNION_R50_NW REUNION_R64_NE REUNION_R64_SE REUNION_R64_SW REUNION_R64_NW BOM_LAT BOM_LON BOM_TYPE BOM_WIND BOM_PRES BOM_TNUM BOM_CI BOM_RMW BOM_R34_NE BOM_R34_SE BOM_R34_SW BOM_R34_NW BOM_R50_NE BOM_R50_SE BOM_R50_SW BOM_R50_NW BOM_R64_NE BOM_R64_SE BOM_R64_SW BOM_R64_NW BOM_ROCI BOM_POCI BOM_EYE BOM_POS_METHOD BOM_PRES_METHOD NADI_LAT NADI_LON NADI_CAT NADI_WIND NADI_PRES WELLINGTON_LAT WELLINGTON_LON WELLINGTON_WIND WELLINGTON_PRES DS824_LAT DS824_LON DS824_STAGE DS824_WIND DS824_PRES TD9636_LAT TD9636_LON TD9636_STAGE TD9636_WIND TD9636_PRES TD9635_LAT TD9635_LON TD9635_WIND TD9635_PRES TD9635_ROCI NEUMANN_LAT NEUMANN_LON NEUMANN_CLASS NEUMANN_WIND NEUMANN_PRES MLC_LAT MLC_LON MLC_CLASS MLC_WIND MLC_PRES USA_GUST BOM_GUST BOM_GUST_PER REUNION_GUST REUNION_GUST_PER USA_SEAHGT USA_SEARAD_NE USA_SEARAD_SE USA_SEARAD_SW USA_SEARAD_NW STORM_SPEED STORM_DIR
1923174N20265 1923 36 NA GM NOT_NAMED 1923-06-22 12:00:00 TS 20.0000 -95.0000 25 hurdat_atl main 145 145 O_____________ hurdat_atl AL011923 20.0000 -95.0000 TD 25 -1 2 88
1923174N20265 1923 36 NA GM NOT_NAMED 1923-06-22 15:00:00 TS 20.0025 -94.9125 main 148 148 P_____________ AL011923 20.0025 -94.9125 TD 25 -1 2 90
1923174N20265 1923 36 NA GM NOT_NAMED 1923-06-22 18:00:00 TS 20.0000 -94.8000 25 hurdat_atl main 151 151 O_____________ hurdat_atl AL011923 20.0000 -94.8000 TD 25 -1 2 92
1923174N20265 1923 36 NA GM NOT_NAMED 1923-06-22 21:00:00 TS 19.9925 -94.6500 main 158 158 P_____________ AL011923 19.9925 -94.6500 TD 25 -1 3 90
1923174N20265 1923 36 NA GM NOT_NAMED 1923-06-23 00:00:00 TS 20.0000 -94.5000 25 hurdat_atl main 162 162 O_____________ hurdat_atl AL011923 20.0000 -94.5000 TD 25 -1 2 78
1923174N20265 1923 36 NA GM NOT_NAMED 1923-06-23 03:00:00 TS 20.0425 -94.4000 main 167 167 P_____________ AL011923 20.0425 -94.4000 TD 25 -1 2 62
1923174N20265 1923 36 NA GM NOT_NAMED 1923-06-23 06:00:00 TS 20.1000 -94.3000 25 hurdat_atl main 182 182 O_____________ hurdat_atl AL011923 20.1000 -94.3000 TD 25 -1 3 65
1923174N20265 1923 36 NA GM NOT_NAMED 1923-06-23 09:00:00 TS 20.1500 -94.1575 main 197 197 P_____________ AL011923 20.1500 -94.1575 TD 25 -1 3 70
1923174N20265 1923 36 NA GM NOT_NAMED 1923-06-23 12:00:00 TS 20.2000 -94.0000 25 hurdat_atl main 207 207 O_____________ hurdat_atl AL011923 20.2000 -94.0000 TD 25 -1 3 72
1923174N20265 1923 36 NA GM NOT_NAMED 1923-06-23 15:00:00 TS 20.2425 -93.8500 main 212 212 P_____________ AL011923 20.2425 -93.8500 TD 25 -1 3 70
1923174N20265 1923 36 NA GM NOT_NAMED 1923-06-23 18:00:00 TS 20.3000 -93.7000 25 hurdat_atl main 217 212 O_____________ hurdat_atl AL011923 20.3000 -93.7000 TD 25 -1 3 62
1923174N20265 1923 36 NA GM NOT_NAMED 1923-06-23 21:00:00 TS 20.3925 -93.5425 main 218 218 P_____________ AL011923 20.3925 -93.5425 TD 25 -1 3 55
1923174N20265 1923 36 NA GM NOT_NAMED 1923-06-24 00:00:00 TS 20.5000 -93.4000 25 hurdat_atl main 224 221 O_____________ hurdat_atl AL011923 20.5000 -93.4000 TD 25 -1 3 50
1923174N20265 1923 36 NA GM NOT_NAMED 1923-06-24 03:00:00 TS 20.5925 -93.2925 main 232 229 P_____________ AL011923 20.5925 -93.2925 TD 25 -1 3 43
1923174N20265 1923 36 NA GM NOT_NAMED 1923-06-24 06:00:00 TS 20.7000 -93.2000 25 hurdat_atl main 240 240 O_____________ hurdat_atl AL011923 20.7000 -93.2000 TD 25 -1 3 38
1923174N20265 1923 36 NA GM NOT_NAMED 1923-06-24 09:00:00 TS 20.8275 -93.0925 main 249 249 P_____________ AL011923 20.8275 -93.0925 TD 25 -1 4 31
1923174N20265 1923 36 NA GM NOT_NAMED 1923-06-24 12:00:00 TS 21.0000 -93.0000 25 hurdat_atl main 265 261 O_____________ hurdat_atl AL011923 21.0000 -93.0000 TD 25 -1 4 20
1923174N20265 1923 36 NA GM NOT_NAMED 1923-06-24 15:00:00 TS 21.2200 -92.9350 main 261 261 P_____________ AL011923 21.2200 -92.9350 TD 25 -1 5 11
1923174N20265 1923 36 NA GM NOT_NAMED 1923-06-24 18:00:00 TS 21.5000 -92.9000 25 hurdat_atl main 270 270 O_____________ hurdat_atl AL011923 21.5000 -92.9000 TD 25 -1 6 4
1923174N20265 1923 36 NA GM NOT_NAMED 1923-06-24 21:00:00 TS 21.8275 -92.8999 main 280 280 P_____________ AL011923 21.8275 -92.8999 TD 25 -1 7 0
1923174N20265 1923 36 NA GM NOT_NAMED 1923-06-25 00:00:00 TS 22.2000 -92.9000 25 hurdat_atl main 295 295 O_____________ hurdat_atl AL011923 22.2000 -92.9000 TD 25 -1 8 0
1923174N20265 1923 36 NA GM NOT_NAMED 1923-06-25 03:00:00 TS 22.5775 -92.8724 main 316 316 P_____________ AL011923 22.5775 -92.8724 TD 27 -1 8 6
1923174N20265 1923 36 NA GM NOT_NAMED 1923-06-25 06:00:00 TS 23.0000 -92.8000 30 hurdat_atl main 333 333 O_____________ hurdat_atl AL011923 23.0000 -92.8000 TD 30 -1 9 11
1923174N20265 1923 36 NA GM NOT_NAMED 1923-06-25 09:00:00 TS 23.4474 -92.6871 main 356 356 P_____________ AL011923 23.4474 -92.6871 TD 30 -1 10 15
1923174N20265 1923 36 NA GM NOT_NAMED 1923-06-25 12:00:00 TS 24.0000 -92.5000 30 hurdat_atl main 395 395 O_____________ hurdat_atl AL011923 24.0000 -92.5000 TD 30 -1 13 18
1923174N20265 1923 36 NA GM NOT_NAMED 1923-06-25 15:00:00 TS 24.6749 -92.2443 main 446 424 P_____________ AL011923 24.6749 -92.2443 TD 32 -1 16 20
1923174N20265 1923 36 NA GM NOT_NAMED 1923-06-25 18:00:00 TS 25.5000 -91.9000 35 hurdat_atl main 413 307 O_____________ hurdat_atl AL011923 25.5000 -91.9000 TS 35 0 19 21
1923174N20265 1923 36 NA GM NOT_NAMED 1923-06-25 21:00:00 TS 26.4700 -91.4866 main 296 190 P_____________ AL011923 26.4700 -91.4866 TS 37 0 22 22
1923174N20265 1923 36 NA GM NOT_NAMED 1923-06-26 00:00:00 TS 27.5000 -91.0000 40 hurdat_atl main 178 78 O_____________ hurdat_atl AL011923 27.5000 -91.0000 TS 40 0 21 23
1923174N20265 1923 36 NA GM NOT_NAMED 1923-06-26 03:00:00 TS 28.4059 -90.5502 main 78 0 P_____________ AL011923 28.4059 -90.5502 TS 40 0 22 26
1923174N20265 1923 36 NA GM NOT_NAMED 1923-06-26 05:00:00 TS 29.1000 -90.1000 40 hurdat_atl main 0 0 O_____________ hurdat_atl AL011923 29.1000 -90.1000 L TS 40 0 26 31
1923174N20265 1923 36 NA NA NOT_NAMED 1923-06-26 06:00:00 TS 29.5000 -89.8000 40 hurdat_atl main 0 0 O_____________ hurdat_atl AL011923 29.5000 -89.8000 TS 40 0 25 38
1923174N20265 1923 36 NA GM NOT_NAMED 1923-06-26 09:00:00 TS 30.4189 -88.9110 main 0 0 P_____________ AL011923 30.4189 -88.9110 TS 37 0 22 46
1923174N20265 1923 36 NA NA NOT_NAMED 1923-06-26 12:00:00 TS 31.0000 -88.0000 35 hurdat_atl main 0 0 O_____________ hurdat_atl AL011923 31.0000 -88.0000 TS 35 0 19 58
1923174N20265 1923 36 NA NA NOT_NAMED 1923-06-26 15:00:00 TS 31.4470 -87.0139 main 0 0 P_____________ AL011923 31.4470 -87.0139 TS 32 -1 18 68
1923174N20265 1923 36 NA NA NOT_NAMED 1923-06-26 18:00:00 TS 31.7000 -86.0000 30 1006 hurdat_atl main 0 0 O_____________ hurdat_atl AL011923 31.7000 -86.0000 TD 30 1006 -1 18 77
1923174N20265 1923 36 NA NA NOT_NAMED 1923-06-26 21:00:00 TS 31.8442 -84.9988 main 0 0 P_____________ AL011923 31.8442 -84.9988 TD 30 -1 17 83
1923174N20265 1923 36 NA NA NOT_NAMED 1923-06-27 00:00:00 TS 31.9000 -84.0000 30 hurdat_atl main 0 0 O_____________ hurdat_atl AL011923 31.9000 -84.0000 TD 30 -1 17 86
1923174N20265 1923 36 NA NA NOT_NAMED 1923-06-27 03:00:00 TS 31.9642 -82.9999 main 0 0 P_____________ AL011923 31.9642 -82.9999 TD 30 -1 17 87
1923174N20265 1923 36 NA NA NOT_NAMED 1923-06-27 06:00:00 TS 32.0000 -82.0000 30 hurdat_atl main 0 0 O_____________ hurdat_atl AL011923 32.0000 -82.0000 TD 30 -1 17 89
1923174N20265 1923 36 NA NA NOT_NAMED 1923-06-27 09:00:00 TS 32.0071 -80.9848 main 0 0 P_____________ AL011923 32.0071 -80.9848 TD 35 0 17 90
1923174N20265 1923 36 NA NA NOT_NAMED 1923-06-27 12:00:00 TS 32.0000 -80.0000 40 hurdat_atl main 62 62 O_____________ hurdat_atl AL011923 32.0000 -80.0000 TS 40 0 16 90
1923174N20265 1923 36 NA NA NOT_NAMED 1923-06-27 15:00:00 TS 31.9992 -79.0775 main 107 107 P_____________ AL011923 31.9992 -79.0775 TS 40 0 15 90
1923174N20265 1923 36 NA NA NOT_NAMED 1923-06-27 18:00:00 TS 32.0000 -78.2000 40 hurdat_atl main 158 158 O_____________ hurdat_atl AL011923 32.0000 -78.2000 TS 40 0 15 91
1923174N20265 1923 36 NA NA NOT_NAMED 1923-06-27 21:00:00 TS 31.9846 -77.3271 main 221 221 P_____________ AL011923 31.9846 -77.3271 TS 42 0 14 90
1923174N20265 1923 36 NA NA NOT_NAMED 1923-06-28 00:00:00 TS 32.0000 -76.5000 45 hurdat_atl main 253 253 O_____________ hurdat_atl AL011923 32.0000 -76.5000 TS 45 0 14 86
1923174N20265 1923 36 NA NA NOT_NAMED 1923-06-28 03:00:00 TS 32.0768 -75.7350 main 293 293 P_____________ AL011923 32.0768 -75.7350 TS 47 0 13 81
1923174N20265 1923 36 NA NA NOT_NAMED 1923-06-28 06:00:00 TS 32.2000 -75.0000 50 hurdat_atl main 311 311 O_____________ hurdat_atl AL011923 32.2000 -75.0000 TS 50 0 13 79
1923174N20265 1923 36 NA NA NOT_NAMED 1923-06-28 09:00:00 TS 32.3271 -74.2496 main 341 339 P_____________ AL011923 32.3271 -74.2496 TS 50 0 13 77
1923174N20265 1923 36 NA NA NOT_NAMED 1923-06-28 12:00:00 TS 32.5000 -73.5000 50 hurdat_atl main 370 370 O_____________ hurdat_atl AL011923 32.5000 -73.5000 TS 50 0 13 74
1923174N20265 1923 36 NA NA NOT_NAMED 1923-06-28 15:00:00 TS 32.6971 -72.7490 main 412 412 P_____________ AL011923 32.6971 -72.7490 TS 47 0 14 68
1923174N20265 1923 36 NA NA NOT_NAMED 1923-06-28 18:00:00 TS 33.0000 -72.0000 45 hurdat_atl main 446 445 O_____________ hurdat_atl AL011923 33.0000 -72.0000 TS 45 0 15 59
1923174N20265 1923 36 NA NA NOT_NAMED 1923-06-28 21:00:00 TS 33.4559 -71.2524 main 461 461 P_____________ AL011923 33.4559 -71.2524 TS 42 0 16 51
1923174N20265 1923 36 NA NA NOT_NAMED 1923-06-29 00:00:00 ET 34.0000 -70.5000 40 hurdat_atl main 497 O_____________ hurdat_atl AL011923 34.0000 -70.5000 EX 40 -4 17 49

IBTrACS Databaseについて

本データベースは、米国NOAAが公開する1842年以降の世界の熱帯低気圧のベストトラックデータアーカイブInternational Best Track Archive for Climate Stewardship (IBTrACS)を、ウェブで閲覧しやすい形式に変換したものです。

最終更新日:2021-10-21